createdAt,value
2023-01-11T00:01:10.567Z,2.90
2023-01-11T00:03:39.778Z,3.00
2023-01-11T00:06:08.451Z,3.00
2023-01-11T00:08:36.354Z,3.00
2023-01-11T00:11:05.845Z,3.10
2023-01-11T00:13:34.137Z,3.10
2023-01-11T00:16:07.777Z,3.10
2023-01-11T00:18:37.647Z,3.10
2023-01-11T00:21:07.952Z,3.10
2023-01-11T00:23:36.901Z,3.20
2023-01-11T00:26:05.454Z,3.20
2023-01-11T00:28:33.888Z,3.30
2023-01-11T00:31:02.364Z,3.30
2023-01-11T00:33:30.588Z,3.30
2023-01-11T00:35:58.548Z,3.40
2023-01-11T00:38:50.613Z,3.30
2023-01-11T00:41:37.083Z,3.30
2023-01-11T00:44:23.303Z,3.30
2023-01-11T00:47:09.384Z,3.30
2023-01-11T00:49:37.383Z,3.30
2023-01-11T00:52:08.752Z,3.40
2023-01-11T00:54:38.526Z,3.40
2023-01-11T00:57:07.539Z,3.40
2023-01-11T00:59:35.615Z,3.40
2023-01-11T01:02:03.792Z,3.40
2023-01-11T01:08:56.476Z,3.50
2023-01-11T01:11:25.823Z,3.50
2023-01-11T01:14:10.988Z,3.40
2023-01-11T01:16:38.864Z,3.40
2023-01-11T01:19:07.384Z,3.30
2023-01-11T01:21:35.422Z,3.30
2023-01-11T01:24:03.375Z,3.30
2023-01-11T01:26:32.582Z,3.30
2023-01-11T01:29:00.654Z,3.30
2023-01-11T01:31:28.626Z,3.30
2023-01-11T01:33:56.673Z,3.40
2023-01-11T01:36:24.689Z,3.30
2023-01-11T01:38:52.805Z,3.40
2023-01-11T01:41:20.753Z,3.40
2023-01-11T01:43:53.060Z,3.30
2023-01-11T01:46:23.378Z,3.30
2023-01-11T01:48:55.017Z,3.30
2023-01-11T01:51:27.888Z,3.30
2023-01-11T01:53:58.738Z,3.30
2023-01-11T01:56:31.410Z,3.40
2023-01-11T01:59:04.272Z,3.50
2023-01-11T02:01:50.791Z,3.50
2023-01-11T02:04:24.279Z,3.60
2023-01-11T02:06:54.118Z,3.60
2023-01-11T02:09:28.148Z,3.60
2023-01-11T02:11:58.428Z,3.70
2023-01-11T02:14:32.207Z,3.70
2023-01-11T02:17:00.207Z,3.70
2023-01-11T02:19:45.061Z,3.80
2023-01-11T02:22:27.574Z,3.80
2023-01-11T02:25:22.022Z,3.90
2023-01-11T02:28:02.660Z,3.90
2023-01-11T02:30:38.541Z,3.90
2023-01-11T02:33:17.929Z,3.90
2023-01-11T02:35:58.058Z,3.90
2023-01-11T02:38:32.055Z,4.00
2023-01-11T02:41:07.075Z,4.00
2023-01-11T02:44:06.282Z,4.10
2023-01-11T02:46:42.781Z,4.10
2023-01-11T02:49:16.261Z,4.10
2023-01-11T02:51:51.335Z,4.10
2023-01-11T02:54:21.843Z,4.10
2023-01-11T02:56:54.063Z,4.10
2023-01-11T02:59:25.089Z,4.10
2023-01-11T03:01:55.661Z,4.20
2023-01-11T03:04:26.080Z,4.10
2023-01-11T03:07:03.288Z,4.10
2023-01-11T03:09:39.604Z,4.10
2023-01-11T03:12:42.510Z,4.10
2023-01-11T03:15:30.294Z,4.10
2023-01-11T03:18:12.633Z,4.10
2023-01-11T03:20:45.108Z,4.20
2023-01-11T03:23:20.971Z,4.20
2023-01-11T03:25:59.395Z,4.20
2023-01-11T03:28:36.216Z,4.20
2023-01-11T03:31:10.616Z,4.20
2023-01-11T03:33:45.684Z,4.20
2023-01-11T03:36:18.119Z,4.20
2023-01-11T03:38:52.529Z,4.20
2023-01-11T03:41:25.539Z,4.10
2023-01-11T03:43:55.428Z,4.10
2023-01-11T03:46:29.876Z,4.10
2023-01-11T03:49:03.267Z,4.10
2023-01-11T03:51:36.052Z,4.10
2023-01-11T03:54:06.855Z,4.00
2023-01-11T03:56:41.287Z,4.00
2023-01-11T03:59:09.274Z,4.00
2023-01-11T04:01:39.071Z,4.00
2023-01-11T04:04:07.152Z,3.90
2023-01-11T04:06:37.918Z,3.80
2023-01-11T04:09:06.791Z,3.80
2023-01-11T04:11:34.823Z,3.80
2023-01-11T04:14:02.849Z,3.70
2023-01-11T04:16:30.800Z,3.70
2023-01-11T04:19:00.226Z,3.80
2023-01-11T04:21:28.134Z,3.70
2023-01-11T04:23:56.278Z,3.70
2023-01-11T04:26:24.394Z,3.80
2023-01-11T04:28:54.312Z,3.80
2023-01-11T04:31:22.476Z,3.80
2023-01-11T04:33:50.706Z,3.80
2023-01-11T04:36:20.189Z,3.80
2023-01-11T04:38:48.148Z,3.80
2023-01-11T04:41:33.513Z,3.80
2023-01-11T04:44:01.373Z,3.80
2023-01-11T04:46:29.326Z,3.80
2023-01-11T04:48:57.540Z,3.80
2023-01-11T04:51:26.747Z,3.90
2023-01-11T04:53:54.730Z,4.00
2023-01-11T04:56:22.565Z,4.10
2023-01-11T04:58:50.638Z,4.20
2023-01-11T05:01:20.243Z,4.20
2023-01-11T05:03:48.665Z,4.20
2023-01-11T05:06:16.944Z,4.20
2023-01-11T05:08:48.398Z,4.20
2023-01-11T05:11:17.530Z,4.30
2023-01-11T05:13:45.618Z,4.40
2023-01-11T05:16:15.955Z,4.30
2023-01-11T05:18:44.982Z,4.40
2023-01-11T05:21:15.398Z,4.50
2023-01-11T05:23:44.321Z,4.50
2023-01-11T05:26:17.778Z,4.50
2023-01-11T05:28:46.133Z,4.60
2023-01-11T05:31:14.473Z,4.60
2023-01-11T05:33:42.425Z,4.70
2023-01-11T05:36:13.474Z,4.70
2023-01-11T05:38:41.993Z,4.60
2023-01-11T05:41:13.178Z,4.60
2023-01-11T05:43:55.257Z,4.60
2023-01-11T05:46:23.727Z,4.60
2023-01-11T05:48:51.830Z,4.60
2023-01-11T05:51:20.142Z,4.50
2023-01-11T05:53:48.067Z,4.40
2023-01-11T05:56:17.331Z,4.50
2023-01-11T05:58:48.251Z,4.40
2023-01-11T06:01:16.308Z,4.50
2023-01-11T06:03:44.248Z,4.50
2023-01-11T06:06:12.228Z,4.60
2023-01-11T06:08:40.406Z,4.70
2023-01-11T06:11:08.402Z,4.70
2023-01-11T06:13:37.674Z,4.70
2023-01-11T06:16:07.245Z,4.80
2023-01-11T06:18:36.868Z,4.80
2023-01-11T06:21:05.561Z,4.80
2023-01-11T06:23:35.052Z,4.80
2023-01-11T06:26:03.890Z,4.70
2023-01-11T06:28:32.360Z,4.70
2023-01-11T06:31:01.783Z,4.70
2023-01-11T06:33:30.888Z,4.80
2023-01-11T06:35:59.701Z,4.80
2023-01-11T06:38:27.671Z,4.80
2023-01-11T06:40:57.298Z,4.80
2023-01-11T06:43:26.437Z,4.80
2023-01-11T06:45:54.953Z,4.80
2023-01-11T06:48:25.076Z,4.80
2023-01-11T06:50:54.553Z,4.80
2023-01-11T06:53:23.364Z,4.80
2023-01-11T06:55:52.138Z,4.90
2023-01-11T06:58:20.840Z,4.90
2023-01-11T07:00:48.807Z,4.80
2023-01-11T07:03:16.913Z,4.80
2023-01-11T07:05:46.535Z,4.80
2023-01-11T07:08:14.579Z,4.80
2023-01-11T07:10:43.740Z,4.80
2023-01-11T07:13:12.024Z,4.80
2023-01-11T07:15:40.153Z,4.80
2023-01-11T07:18:08.258Z,4.80
2023-01-11T07:20:36.143Z,4.80
2023-01-11T07:23:05.459Z,4.80
2023-01-11T07:25:33.471Z,4.80
2023-01-11T07:28:02.972Z,4.80
2023-01-11T07:30:37.456Z,4.90
2023-01-11T07:33:11.804Z,4.90
2023-01-11T07:35:39.687Z,4.90
2023-01-11T07:38:10.202Z,4.90
2023-01-11T07:40:39.879Z,4.90
2023-01-11T07:43:14.627Z,4.80
2023-01-11T07:45:46.366Z,4.80
2023-01-11T07:48:16.633Z,4.80
2023-01-11T07:50:45.414Z,4.90
2023-01-11T07:53:15.279Z,4.90
2023-01-11T07:55:43.830Z,5.00
2023-01-11T07:58:12.981Z,5.10
2023-01-11T08:00:41.746Z,5.10
2023-01-11T08:03:10.204Z,5.20
2023-01-11T08:05:38.296Z,5.20
2023-01-11T08:08:06.915Z,5.30
2023-01-11T08:10:36.332Z,5.30
2023-01-11T08:13:21.694Z,5.40
2023-01-11T08:15:49.754Z,5.40
2023-01-11T08:18:19.526Z,5.50
2023-01-11T08:20:47.672Z,5.50
2023-01-11T08:23:15.649Z,5.60
2023-01-11T08:25:45.058Z,5.60
2023-01-11T08:28:13.605Z,5.70
2023-01-11T08:30:41.543Z,5.70
2023-01-11T08:33:11.322Z,5.80
2023-01-11T08:35:40.102Z,5.80
2023-01-11T08:38:08.391Z,5.90
2023-01-11T08:40:36.438Z,6.00
2023-01-11T08:43:05.688Z,6.10
2023-01-11T08:45:34.113Z,6.10
2023-01-11T08:48:02.065Z,6.20
2023-01-11T08:50:29.882Z,6.20
2023-01-11T08:52:57.986Z,6.30
2023-01-11T08:55:25.828Z,6.30
2023-01-11T08:57:53.851Z,6.30
2023-01-11T09:00:23.448Z,6.40
2023-01-11T09:02:51.525Z,6.50
2023-01-11T09:05:19.409Z,6.50
2023-01-11T09:07:47.574Z,6.60
2023-01-11T09:10:15.689Z,6.70
2023-01-11T09:12:44.422Z,6.70
2023-01-11T09:15:12.905Z,6.80
2023-01-11T09:17:42.302Z,6.90
2023-01-11T09:20:12.016Z,7.00
2023-01-11T09:22:40.197Z,7.10
2023-01-11T09:25:09.834Z,7.10
2023-01-11T09:27:37.661Z,7.20
2023-01-11T09:30:06.594Z,7.20
2023-01-11T09:32:34.614Z,7.30
2023-01-11T09:35:04.787Z,7.40
2023-01-11T09:37:32.876Z,7.40
2023-01-11T09:40:01.742Z,7.50
2023-01-11T09:42:37.527Z,7.60
2023-01-11T09:45:13.731Z,7.50
2023-01-11T09:47:46.100Z,7.60
2023-01-11T09:50:19.827Z,7.60
2023-01-11T09:52:52.979Z,7.60
2023-01-11T09:55:28.680Z,7.70
2023-01-11T09:58:21.791Z,7.70
2023-01-11T10:01:01.106Z,7.80
2023-01-11T10:03:59.913Z,7.80
2023-01-11T10:06:34.408Z,7.80
2023-01-11T10:18:22.626Z,7.90
2023-01-11T10:18:46.101Z,8.00
2023-01-11T10:21:13.421Z,8.10
2023-01-11T10:23:50.596Z,8.10
2023-01-11T10:26:28.526Z,8.10
2023-01-11T10:29:38.481Z,8.20
2023-01-11T10:32:32.243Z,8.30
2023-01-11T10:35:24.349Z,8.40
2023-01-11T10:38:10.253Z,8.50
2023-01-11T10:41:08.487Z,8.60
2023-01-11T10:43:44.843Z,8.80
2023-01-11T10:46:16.516Z,9.00
2023-01-11T10:48:45.957Z,9.00
2023-01-11T10:51:27.930Z,9.10
2023-01-11T10:54:02.612Z,9.20
2023-01-11T10:57:02.668Z,9.20
2023-01-11T10:59:56.494Z,9.10
2023-01-11T11:02:40.213Z,9.10
2023-01-11T11:05:19.760Z,9.00
2023-01-11T11:07:54.221Z,9.00
2023-01-11T11:10:30.407Z,9.00
2023-01-11T11:13:06.517Z,9.00
2023-01-11T11:15:38.817Z,9.00
2023-01-11T11:18:06.928Z,9.00
2023-01-11T11:20:35.709Z,9.00
2023-01-11T11:23:03.766Z,9.00
2023-01-11T11:25:33.691Z,9.10
2023-01-11T11:28:07.301Z,9.20
2023-01-11T11:30:39.086Z,9.50
2023-01-11T11:33:16.905Z,9.60
2023-01-11T11:35:46.527Z,9.60
2023-01-11T11:38:24.050Z,9.70
2023-01-11T11:40:58.965Z,9.60
2023-01-11T11:43:28.859Z,9.70
2023-01-11T11:45:59.385Z,9.70
2023-01-11T11:48:29.650Z,9.70
2023-01-11T11:50:59.818Z,9.50
2023-01-11T11:53:42.987Z,9.50
2023-01-11T11:56:21.798Z,9.30
2023-01-11T11:58:51.873Z,9.30
2023-01-11T12:01:29.397Z,9.20
2023-01-11T12:04:02.606Z,9.00
2023-01-11T12:06:31.752Z,8.90
2023-01-11T12:09:03.633Z,8.80
2023-01-11T12:11:35.046Z,8.70
2023-01-11T12:14:17.715Z,8.70
2023-01-11T12:16:47.366Z,8.50
2023-01-11T12:19:35.192Z,8.40
2023-01-11T12:22:16.914Z,8.30
2023-01-11T12:24:45.673Z,8.30
2023-01-11T12:27:28.364Z,8.20
2023-01-11T12:30:19.176Z,8.20
2023-01-11T12:33:18.957Z,8.10
2023-01-11T12:35:55.872Z,8.00
2023-01-11T12:38:32.498Z,8.00
2023-01-11T12:41:14.630Z,7.90
2023-01-11T12:43:59.585Z,7.80
2023-01-11T12:46:44.803Z,7.80
2023-01-11T12:49:27.128Z,7.70
2023-01-11T12:52:18.675Z,7.70
2023-01-11T12:55:05.564Z,7.60
2023-01-11T12:57:41.688Z,7.60
2023-01-11T13:00:23.404Z,7.60
2023-01-11T13:03:10.170Z,7.50
2023-01-11T13:05:52.062Z,7.50
2023-01-11T13:08:28.167Z,7.40
2023-01-11T13:11:03.478Z,7.40
2023-01-11T13:13:36.839Z,7.40
2023-01-11T13:16:13.280Z,7.30
2023-01-11T13:18:47.167Z,7.20
2023-01-11T13:21:24.939Z,7.20
2023-01-11T13:23:56.091Z,7.20
2023-01-11T13:26:27.509Z,7.20
2023-01-11T13:29:00.612Z,7.20
2023-01-11T13:31:29.329Z,7.20
2023-01-11T13:34:04.430Z,7.10
2023-01-11T13:36:41.107Z,7.10
2023-01-11T13:39:18.661Z,7.10
2023-01-11T13:41:50.711Z,7.10
2023-01-11T13:44:23.592Z,7.00
2023-01-11T13:47:01.144Z,7.00
2023-01-11T13:49:54.865Z,7.00
2023-01-11T13:52:32.292Z,7.00
2023-01-11T13:55:05.648Z,7.00
2023-01-11T13:57:41.143Z,7.00
2023-01-11T14:00:21.420Z,6.90
2023-01-11T14:02:52.791Z,6.90
2023-01-11T14:05:23.536Z,6.90
2023-01-11T14:08:01.663Z,6.90
2023-01-11T14:10:40.748Z,6.90
2023-01-11T14:14:07.195Z,6.90
2023-01-11T14:16:46.152Z,6.80
2023-01-11T14:19:23.496Z,6.90
2023-01-11T14:22:08.581Z,6.80
2023-01-11T14:24:38.816Z,6.80
2023-01-11T14:27:33.322Z,6.80
2023-01-11T14:30:31.178Z,6.70
2023-01-11T14:33:23.601Z,6.80
2023-01-11T14:36:13.008Z,6.70
2023-01-11T14:39:01.466Z,6.70
2023-01-11T14:41:59.723Z,6.70
2023-01-11T14:44:40.605Z,6.70
2023-01-11T14:47:22.867Z,6.60
2023-01-11T14:50:05.237Z,6.60
2023-01-11T14:52:40.292Z,6.70
2023-01-11T14:55:19.982Z,6.60
2023-01-11T14:58:03.353Z,6.60
2023-01-11T15:01:06.580Z,6.50
2023-01-11T15:03:41.676Z,6.50
2023-01-11T15:06:16.660Z,6.60
2023-01-11T15:08:50.113Z,6.50
2023-01-11T15:11:45.425Z,6.60
2023-01-11T15:14:30.768Z,6.60
2023-01-11T15:17:20.084Z,6.60
2023-01-11T15:19:49.219Z,6.50
2023-01-11T15:22:35.153Z,6.50
2023-01-11T15:25:05.217Z,6.50
2023-01-11T15:27:36.712Z,6.50
2023-01-11T15:30:06.494Z,6.50
2023-01-11T15:32:35.778Z,6.50
2023-01-11T15:35:33.729Z,6.40
2023-01-11T15:38:11.998Z,6.50
2023-01-11T15:40:42.573Z,6.40
2023-01-11T15:43:52.575Z,6.40
2023-01-11T15:47:08.417Z,6.40
2023-01-11T15:50:06.352Z,6.40
2023-01-11T15:53:11.237Z,6.40
2023-01-11T15:56:11.434Z,6.40
2023-01-11T15:59:05.568Z,6.40
2023-01-11T16:01:50.660Z,6.40
2023-01-11T16:04:29.884Z,6.50
2023-01-11T16:07:02.962Z,6.40
2023-01-11T16:09:59.094Z,6.40
2023-01-11T16:12:54.389Z,6.40
2023-01-11T16:15:42.353Z,6.50
2023-01-11T16:18:15.915Z,6.50
2023-01-11T16:20:56.978Z,6.50
2023-01-11T16:23:25.413Z,6.50
2023-01-11T16:25:57.029Z,6.50
2023-01-11T16:28:26.535Z,6.50
2023-01-11T16:30:58.009Z,6.50
2023-01-11T16:33:28.463Z,6.60
2023-01-11T16:36:13.628Z,6.60
2023-01-11T16:38:55.194Z,6.50
2023-01-11T16:41:24.910Z,6.50
2023-01-11T16:44:00.204Z,6.50
2023-01-11T16:47:15.422Z,6.50
2023-01-11T16:49:48.908Z,6.50
2023-01-11T16:52:45.412Z,6.50
2023-01-11T16:55:29.582Z,6.40
2023-01-11T16:58:00.328Z,6.40
2023-01-11T17:00:35.768Z,6.40
2023-01-11T17:03:20.147Z,6.40
2023-01-11T17:06:00.375Z,6.40
2023-01-11T17:08:32.699Z,6.40
2023-01-11T17:11:04.244Z,6.40
2023-01-11T17:13:54.657Z,6.40
2023-01-11T17:16:25.968Z,6.40
2023-01-11T17:18:55.201Z,6.40
2023-01-11T17:21:25.783Z,6.40
2023-01-11T17:23:59.737Z,6.40
2023-01-11T17:26:31.691Z,6.30
2023-01-11T17:29:01.552Z,6.30
2023-01-11T17:31:32.325Z,6.30
2023-01-11T17:34:08.299Z,6.30
2023-01-11T17:36:37.512Z,6.30
2023-01-11T17:39:07.619Z,6.30
2023-01-11T17:41:54.045Z,6.30
2023-01-11T17:44:41.642Z,6.30
2023-01-11T17:47:13.157Z,6.30
2023-01-11T17:49:41.315Z,6.30
2023-01-11T17:52:11.205Z,6.30
2023-01-11T17:54:40.560Z,6.30
2023-01-11T17:57:10.575Z,6.30
2023-01-11T17:59:38.627Z,6.30
2023-01-11T18:02:13.242Z,6.40
2023-01-11T18:04:41.677Z,6.40
2023-01-11T18:07:16.057Z,6.40
2023-01-11T18:09:48.134Z,6.20
2023-01-11T18:12:19.085Z,6.10
2023-01-11T18:14:54.349Z,6.10
2023-01-11T18:17:35.134Z,6.00
2023-01-11T18:20:05.309Z,5.90
2023-01-11T18:22:37.333Z,5.90
2023-01-11T18:25:18.561Z,5.90
2023-01-11T18:27:47.027Z,5.90
2023-01-11T18:30:37.178Z,5.90
2023-01-11T18:33:12.736Z,5.90
2023-01-11T18:35:43.800Z,5.90
2023-01-11T18:38:16.094Z,5.90
2023-01-11T18:40:45.960Z,5.90
2023-01-11T18:43:14.532Z,5.90
2023-01-11T18:45:58.862Z,5.90
2023-01-11T18:48:26.788Z,5.90
2023-01-11T18:50:55.516Z,5.90
2023-01-11T18:53:24.551Z,5.90
2023-01-11T18:55:54.180Z,5.90
2023-01-11T18:58:22.843Z,5.80
2023-01-11T19:00:50.708Z,5.80
2023-01-11T19:03:18.795Z,5.70
2023-01-11T19:05:53.021Z,5.70
2023-01-11T19:08:20.874Z,5.70
2023-01-11T19:10:50.493Z,5.60
2023-01-11T19:13:21.166Z,5.60
2023-01-11T19:15:49.785Z,5.50
2023-01-11T19:18:17.748Z,5.50
2023-01-11T19:20:45.657Z,5.40
2023-01-11T19:23:13.493Z,5.30
2023-01-11T19:25:41.591Z,5.20
2023-01-11T19:28:09.589Z,5.20
2023-01-11T19:30:41.408Z,5.10
2023-01-11T19:33:09.622Z,5.00
2023-01-11T19:35:40.960Z,5.00
2023-01-11T19:38:09.145Z,4.90
2023-01-11T19:40:36.992Z,4.80
2023-01-11T19:43:04.869Z,4.70
2023-01-11T19:45:32.791Z,4.60
2023-01-11T19:48:02.015Z,4.50
2023-01-11T19:50:29.879Z,4.50
2023-01-11T19:52:57.811Z,4.50
2023-01-11T19:55:26.112Z,4.40
2023-01-11T19:57:54.051Z,4.30
2023-01-11T20:00:21.973Z,4.20
2023-01-11T20:02:50.383Z,4.10
2023-01-11T20:05:19.660Z,4.00
2023-01-11T20:07:47.559Z,4.00
2023-01-11T20:10:15.478Z,3.90
2023-01-11T20:12:43.378Z,3.80
2023-01-11T20:15:12.647Z,3.70
2023-01-11T20:17:40.532Z,3.70
2023-01-11T20:20:10.107Z,3.60
2023-01-11T20:22:39.604Z,3.50
2023-01-11T20:25:08.362Z,3.40
2023-01-11T20:27:36.248Z,3.30
2023-01-11T20:30:04.396Z,3.30
2023-01-11T20:32:41.340Z,3.30
2023-01-11T20:35:11.170Z,3.20
2023-01-11T20:37:40.461Z,3.10
2023-01-11T20:40:11.864Z,3.00
2023-01-11T20:42:41.202Z,2.90
2023-01-11T20:45:10.321Z,2.90
2023-01-11T20:47:38.872Z,2.80
2023-01-11T20:50:07.712Z,2.70
2023-01-11T20:52:35.596Z,2.70
2023-01-11T20:55:05.247Z,2.70
2023-01-11T20:57:33.292Z,2.70
2023-01-11T21:00:01.186Z,2.70
2023-01-11T21:02:29.035Z,2.80
2023-01-11T21:04:57.134Z,2.70
2023-01-11T21:07:25.083Z,2.60
2023-01-11T21:09:53.147Z,2.60
2023-01-11T21:12:22.436Z,2.50
2023-01-11T21:14:50.328Z,2.50
2023-01-11T21:17:19.280Z,2.50
2023-01-11T21:20:19.139Z,2.50
2023-01-11T21:22:47.244Z,2.40
2023-01-11T21:25:17.180Z,2.40
2023-01-11T21:27:46.624Z,2.30
2023-01-11T21:30:14.895Z,2.20
2023-01-11T21:32:42.799Z,2.20
2023-01-11T21:35:11.134Z,2.40
2023-01-11T21:37:39.162Z,2.30
2023-01-11T21:40:08.243Z,2.30
2023-01-11T21:42:36.176Z,2.30
2023-01-11T21:45:06.590Z,2.50
2023-01-11T21:47:34.560Z,2.40
2023-01-11T21:50:02.471Z,2.40
2023-01-11T21:52:30.334Z,2.50
2023-01-11T21:54:58.246Z,2.50
2023-01-11T21:57:26.205Z,2.60
2023-01-11T21:59:54.032Z,2.60
2023-01-11T22:02:23.464Z,2.60
2023-01-11T22:04:56.349Z,2.70
2023-01-11T22:07:24.489Z,2.90
2023-01-11T22:10:04.150Z,2.90
2023-01-11T22:12:34.271Z,3.00
2023-01-11T22:15:02.226Z,3.00
2023-01-11T22:17:31.429Z,2.90
2023-01-11T22:19:59.323Z,3.00
2023-01-11T22:22:28.200Z,2.90
2023-01-11T22:24:56.124Z,3.00
2023-01-11T22:27:24.001Z,3.10
2023-01-11T22:29:52.222Z,3.00
2023-01-11T22:32:20.086Z,3.00
2023-01-11T22:34:49.610Z,3.00
2023-01-11T22:37:17.524Z,2.90
2023-01-11T22:39:45.370Z,3.00
2023-01-11T22:42:13.429Z,3.10
2023-01-11T22:44:41.467Z,3.00
2023-01-11T22:47:09.520Z,3.00
2023-01-11T22:49:37.358Z,2.90
2023-01-11T22:52:07.336Z,2.90
2023-01-11T22:54:35.400Z,2.90
2023-01-11T22:57:03.276Z,2.90
2023-01-11T22:59:31.105Z,3.00
2023-01-11T23:01:59.024Z,3.10
2023-01-11T23:04:26.894Z,3.20
2023-01-11T23:06:54.806Z,3.30
2023-01-11T23:09:24.241Z,3.30
2023-01-11T23:12:09.629Z,3.20
2023-01-11T23:14:37.501Z,3.30
2023-01-11T23:17:07.338Z,3.30
2023-01-11T23:19:36.458Z,3.30
2023-01-11T23:22:04.888Z,3.20
2023-01-11T23:24:34.437Z,3.40
2023-01-11T23:27:02.421Z,3.50
2023-01-11T23:29:30.331Z,3.60
2023-01-11T23:31:58.430Z,3.60
2023-01-11T23:34:26.419Z,3.60
2023-01-11T23:36:54.293Z,3.70
2023-01-11T23:39:23.698Z,3.70
2023-01-11T23:42:10.424Z,3.70
2023-01-11T23:44:38.273Z,3.70
2023-01-11T23:47:25.043Z,3.70
2023-01-11T23:49:54.833Z,3.70
2023-01-11T23:52:24.700Z,3.70
2023-01-11T23:54:52.772Z,3.70
2023-01-11T23:57:23.150Z,3.80
2023-01-11T23:59:51.159Z,3.70
